Time;durP1;ratioP1;P1;durP2;ratioP2;P2;SDS_P1;SDS_P2;PMS_P1;PMS_P2;Temp;Humidity;BMP_temperature;BMP_pressure;BME280_temperature;BME280_humidity;BME280_pressure;Samples;Min_cycle;Max_cycle;Signal;HPM_P1;HPM_P2
2023/04/23 00:02:03;;;;;;;26.58;14.02;;;9.40;81.00;;;;;;4988719;28;20050;-69
2023/04/23 00:04:32;;;;;;;27.75;14.00;;;9.40;81.00;;;;;;4971450;28;20130;-70
2023/04/23 00:07:00;;;;;;;26.17;13.70;;;9.40;81.00;;;;;;4990282;28;20077;-70
2023/04/23 00:09:31;;;;;;;24.70;12.53;;;9.40;81.00;;;;;;4970506;28;20635;-70
2023/04/23 00:11:58;;;;;;;25.50;13.00;;;9.40;81.10;;;;;;4978257;28;20270;-69
2023/04/23 00:14:27;;;;;;;25.77;12.77;;;9.40;81.00;;;;;;4988430;28;20055;-69
2023/04/23 00:16:55;;;;;;;24.17;13.27;;;9.40;81.10;;;;;;4990520;28;20086;-69
2023/04/23 00:19:22;;;;;;;26.27;13.85;;;9.30;81.10;;;;;;4986858;28;20054;-69
2023/04/23 00:21:49;;;;;;;26.63;13.57;;;9.30;81.10;;;;;;4990293;28;20590;-70
2023/04/23 00:24:16;;;;;;;26.00;13.50;;;9.30;81.20;;;;;;4969903;28;20251;-69
2023/04/23 00:26:42;;;;;;;26.30;13.52;;;9.30;81.10;;;;;;4988823;28;20057;-69
2023/04/23 00:29:10;;;;;;;24.98;13.20;;;9.20;81.20;;;;;;4987034;28;20130;-69
2023/04/23 00:31:38;;;;;;;30.45;14.20;;;9.20;81.10;;;;;;4988590;28;20067;-70
2023/04/23 00:34:09;;;;;;;25.03;14.27;;;9.20;81.20;;;;;;4989642;28;20051;-70
2023/04/23 00:36:36;;;;;;;26.42;13.98;;;9.20;81.30;;;;;;4969802;28;20264;-70
2023/04/23 00:39:03;;;;;;;25.80;14.20;;;9.20;81.20;;;;;;4984374;28;20522;-70
2023/04/23 00:41:30;;;;;;;28.70;14.55;;;9.20;81.30;;;;;;4969200;28;20873;-70
2023/04/23 00:43:58;;;;;;;26.73;13.90;;;9.10;81.50;;;;;;4973171;28;20599;-70
2023/04/23 00:46:25;;;;;;;26.77;13.73;;;9.10;81.50;;;;;;4988008;28;20065;-69
2023/04/23 00:48:54;;;;;;;28.17;14.00;;;9.00;81.50;;;;;;4987624;28;20354;-70
2023/04/23 00:51:22;;;;;;;29.30;14.60;;;9.00;81.50;;;;;;4971556;28;20127;-70
2023/04/23 00:53:49;;;;;;;29.70;15.20;;;9.00;81.60;;;;;;4976026;28;20051;-70
2023/04/23 00:56:17;;;;;;;28.65;15.18;;;9.00;81.70;;;;;;4989872;28;20506;-69
2023/04/23 00:58:45;;;;;;;28.37;14.77;;;9.00;81.70;;;;;;4972000;28;20043;-70
2023/04/23 01:01:12;;;;;;;27.55;14.45;;;9.00;81.80;;;;;;5003558;28;20262;-71
2023/04/23 01:03:42;;;;;;;31.52;16.63;;;9.00;81.70;;;;;;4973240;28;20061;-69
2023/04/23 01:06:10;;;;;;;29.33;15.50;;;8.90;81.80;;;;;;4995937;28;20134;-69
2023/04/23 01:08:40;;;;;;;37.08;16.90;;;8.90;81.80;;;;;;5001510;28;20509;-69
2023/04/23 01:11:07;;;;;;;36.27;17.37;;;8.90;81.90;;;;;;4997101;28;20057;-69
2023/04/23 01:13:35;;;;;;;35.72;18.75;;;8.90;81.90;;;;;;4987865;28;20330;-69
2023/04/23 01:16:02;;;;;;;35.92;18.35;;;8.90;82.00;;;;;;5004127;28;20055;-70
2023/04/23 01:18:29;;;;;;;35.92;18.40;;;8.90;82.00;;;;;;4987709;28;20059;-70
2023/04/23 01:20:56;;;;;;;39.30;18.55;;;8.80;82.00;;;;;;4988572;28;21014;-70
2023/04/23 01:23:25;;;;;;;39.60;19.10;;;8.80;82.10;;;;;;4984396;28;20051;-70
2023/04/23 01:25:53;;;;;;;41.10;19.60;;;8.80;82.10;;;;;;4978543;28;20967;-69
2023/04/23 01:28:21;;;;;;;50.70;22.55;;;8.80;82.20;;;;;;4985330;28;20129;-69
2023/04/23 01:30:49;;;;;;;50.85;22.63;;;8.80;82.60;;;;;;4986999;28;20142;-70
2023/04/23 01:33:16;;;;;;;46.83;23.58;;;8.80;82.60;;;;;;5003930;28;20043;-70
2023/04/23 01:35:45;;;;;;;54.97;24.57;;;8.80;82.70;;;;;;4987346;28;20561;-70
2023/04/23 01:38:14;;;;;;;55.13;24.15;;;8.80;82.70;;;;;;4987981;28;20397;-69
2023/04/23 01:40:42;;;;;;;59.13;26.80;;;8.80;82.80;;;;;;4978287;28;20078;-70
2023/04/23 01:43:09;;;;;;;57.83;25.95;;;8.80;82.90;;;;;;4986244;28;20420;-70
2023/04/23 01:45:37;;;;;;;57.33;24.83;;;8.80;83.00;;;;;;5003896;28;20502;-70
2023/04/23 01:48:04;;;;;;;58.47;26.17;;;8.80;83.00;;;;;;4987457;28;20154;-69
2023/04/23 01:50:31;;;;;;;63.20;27.13;;;8.80;83.00;;;;;;4999495;28;20259;-70
2023/04/23 01:52:58;;;;;;;55.63;25.73;;;8.80;83.00;;;;;;4985901;28;20122;-70
2023/04/23 01:55:25;;;;;;;58.28;26.55;;;8.80;83.10;;;;;;5003282;28;20525;-70
2023/04/23 01:57:53;;;;;;;58.30;26.48;;;8.80;83.00;;;;;;5003811;28;20047;-70
2023/04/23 02:00:20;;;;;;;61.73;27.27;;;8.80;83.10;;;;;;4997663;28;20077;-70
2023/04/23 02:02:50;;;;;;;58.28;25.77;;;8.80;83.20;;;;;;4984165;28;20327;-70
2023/04/23 02:05:18;;;;;;;61.83;27.30;;;8.80;83.10;;;;;;4986261;28;20137;-70
2023/04/23 02:07:46;;;;;;;64.97;27.92;;;8.80;83.20;;;;;;4988683;28;20592;-70
2023/04/23 02:10:15;;;;;;;59.97;27.00;;;8.70;83.20;;;;;;4986554;28;20055;-69
2023/04/23 02:12:42;;;;;;;61.73;27.53;;;8.70;83.20;;;;;;5003696;28;20063;-70
2023/04/23 02:15:12;;;;;;;57.50;25.42;;;8.80;83.30;;;;;;4988063;28;20274;-69
2023/04/23 02:17:39;;;;;;;59.63;26.40;;;8.80;83.30;;;;;;4984289;28;20496;-69
2023/04/23 02:20:08;;;;;;;62.08;27.63;;;8.80;83.30;;;;;;4986076;28;20074;-70
2023/04/23 02:22:35;;;;;;;59.70;26.63;;;8.80;83.20;;;;;;4970418;28;20059;-70
2023/04/23 02:25:02;;;;;;;58.70;26.17;;;8.80;83.30;;;;;;4986598;28;20103;-70
2023/04/23 02:27:29;;;;;;;55.15;24.02;;;8.80;83.20;;;;;;4988402;28;20263;-69
2023/04/23 02:29:56;;;;;;;53.08;24.40;;;8.80;83.20;;;;;;4986050;28;20537;-69
2023/04/23 02:32:25;;;;;;;53.03;25.60;;;8.80;83.00;;;;;;4986542;28;20517;-69
2023/04/23 02:34:52;;;;;;;51.88;24.60;;;8.80;83.00;;;;;;4980999;28;20510;-69
2023/04/23 02:37:20;;;;;;;55.27;25.20;;;8.80;82.90;;;;;;4978229;28;20054;-69
2023/04/23 02:39:47;;;;;;;49.53;22.60;;;8.80;82.90;;;;;;4986040;28;20266;-70
2023/04/23 02:42:13;;;;;;;49.22;22.88;;;8.80;82.70;;;;;;4987764;28;20057;-70
2023/04/23 02:44:40;;;;;;;44.70;21.55;;;8.90;82.60;;;;;;4987798;28;20141;-70
2023/04/23 02:47:07;;;;;;;44.85;20.95;;;8.90;82.60;;;;;;5003167;28;20055;-69
2023/04/23 02:49:36;;;;;;;40.90;20.20;;;8.90;82.40;;;;;;4984367;28;20150;-69
2023/04/23 02:52:03;;;;;;;42.35;19.77;;;8.90;82.30;;;;;;4966995;28;20276;-69
2023/04/23 02:54:31;;;;;;;40.72;19.63;;;8.90;82.10;;;;;;4967152;28;20126;-69
2023/04/23 02:56:58;;;;;;;42.47;20.55;;;8.90;82.00;;;;;;4986480;28;20086;-69
2023/04/23 02:59:25;;;;;;;40.95;19.92;;;8.90;81.80;;;;;;5002307;28;20058;-70
2023/04/23 03:01:52;;;;;;;39.20;18.90;;;8.90;81.60;;;;;;4969357;28;20051;-69
2023/04/23 03:04:19;;;;;;;46.60;21.52;;;8.90;81.50;;;;;;4986573;28;20330;-70
2023/04/23 03:06:48;;;;;;;44.50;21.63;;;8.90;81.40;;;;;;4984472;28;20055;-70
2023/04/23 03:09:15;;;;;;;50.03;23.13;;;8.90;81.20;;;;;;4985932;28;20051;-69
2023/04/23 03:11:43;;;;;;;51.55;24.05;;;8.90;81.10;;;;;;4986107;28;20050;-69
2023/04/23 03:14:12;;;;;;;50.23;23.90;;;8.80;81.10;;;;;;4986210;28;20050;-70
2023/04/23 03:16:39;;;;;;;54.83;25.10;;;8.80;81.00;;;;;;4986614;28;20255;-69
2023/04/23 03:19:06;;;;;;;58.45;26.15;;;8.80;81.00;;;;;;4989544;28;20117;-70
2023/04/23 03:21:33;;;;;;;61.45;27.70;;;8.80;81.10;;;;;;5006095;28;20694;-70
2023/04/23 03:24:01;;;;;;;58.90;26.27;;;8.80;81.30;;;;;;4987383;28;20047;-70
2023/04/23 03:26:29;;;;;;;59.93;27.67;;;8.80;81.50;;;;;;4989577;28;20141;-70
2023/04/23 03:28:55;;;;;;;66.45;26.92;;;8.70;81.60;;;;;;4988715;28;20828;-70
2023/04/23 03:31:23;;;;;;;66.30;25.15;;;8.70;81.80;;;;;;4989510;28;20054;-70
2023/04/23 03:33:49;;;;;;;62.08;27.85;;;8.60;82.10;;;;;;5005807;28;20055;-71
2023/04/23 03:36:23;;;;;;;61.95;26.38;;;8.60;82.20;;;;;;4988971;28;20529;-70
2023/04/23 03:38:50;;;;;;;56.40;24.87;;;8.60;82.30;;;;;;4989036;28;20047;-70
2023/04/23 03:41:19;;;;;;;57.65;24.27;;;8.60;82.40;;;;;;4986901;28;20691;-70
2023/04/23 03:43:46;;;;;;;58.75;24.02;;;8.60;82.50;;;;;;4989362;28;20051;-69
2023/04/23 03:46:18;;;;;;;52.55;23.60;;;8.60;82.70;;;;;;4989025;28;20118;-69
2023/04/23 03:48:45;;;;;;;63.75;25.40;;;8.60;82.80;;;;;;4989237;28;20050;-70
2023/04/23 03:51:19;;;;;;;56.50;24.03;;;8.60;82.80;;;;;;4988943;28;20653;-70
2023/04/23 03:53:49;;;;;;;61.42;24.75;;;8.60;82.90;;;;;;4985253;28;20369;-69
2023/04/23 03:56:38;;;;;;;62.75;25.00;;;8.60;83.00;;;;;;4986950;28;20318;-70
2023/04/23 03:59:21;;;;;;;55.55;24.77;;;8.60;83.00;;;;;;4972445;28;20130;-70
2023/04/23 04:01:50;;;;;;;58.97;24.73;;;8.50;83.00;;;;;;4972338;28;20059;-69
2023/04/23 04:04:18;;;;;;;60.17;25.83;;;8.50;83.20;;;;;;4985469;28;20051;-69
2023/04/23 04:06:45;;;;;;;62.45;26.33;;;8.50;83.20;;;;;;4981600;28;20829;-69
2023/04/23 04:09:12;;;;;;;65.45;27.40;;;8.50;83.50;;;;;;4978179;28;20134;-70
2023/04/23 04:11:40;;;;;;;63.90;27.75;;;8.50;83.60;;;;;;4988625;28;20043;-70
2023/04/23 04:14:10;;;;;;;62.08;27.58;;;8.50;83.60;;;;;;4981359;28;20122;-70
2023/04/23 04:16:36;;;;;;;61.67;27.73;;;8.50;83.70;;;;;;4968831;28;20126;-69
2023/04/23 04:19:03;;;;;;;70.95;29.98;;;8.50;83.90;;;;;;4976119;28;20318;-70
2023/04/23 04:21:31;;;;;;;65.82;29.25;;;8.60;83.90;;;;;;4988316;28;20127;-70
2023/04/23 04:24:00;;;;;;;67.55;28.33;;;8.60;83.70;;;;;;4988087;28;20070;-70
2023/04/23 04:26:27;;;;;;;66.32;28.80;;;8.60;84.00;;;;;;4988400;28;20086;-70
2023/04/23 04:28:57;;;;;;;60.60;26.67;;;8.60;84.00;;;;;;4987231;28;20526;-69
2023/04/23 04:31:24;;;;;;;60.40;26.90;;;8.60;84.00;;;;;;4987056;28;20345;-70
2023/04/23 04:33:51;;;;;;;63.55;27.65;;;8.60;84.10;;;;;;4988240;28;20114;-70
2023/04/23 04:36:18;;;;;;;71.15;27.80;;;8.60;84.20;;;;;;4990148;28;20652;-70
2023/04/23 04:38:45;;;;;;;76.80;28.85;;;8.60;84.20;;;;;;4987286;28;20138;-69
2023/04/23 04:41:12;;;;;;;62.83;26.13;;;8.60;84.30;;;;;;4984278;28;20125;-70
2023/04/23 04:43:40;;;;;;;66.10;27.70;;;8.60;84.40;;;;;;5004822;28;20283;-70
2023/04/23 04:46:10;;;;;;;72.30;29.63;;;8.60;84.40;;;;;;4974043;28;20055;-70
2023/04/23 04:48:37;;;;;;;68.00;30.23;;;8.60;84.40;;;;;;4988784;28;21032;-70
2023/04/23 04:51:04;;;;;;;60.97;26.50;;;8.60;84.40;;;;;;4984582;28;20671;-70
2023/04/23 04:53:31;;;;;;;69.37;28.97;;;8.60;84.60;;;;;;4970497;28;20059;-69
2023/04/23 04:55:58;;;;;;;67.43;29.60;;;8.60;84.60;;;;;;4975249;28;20327;-69
2023/04/23 04:58:25;;;;;;;65.07;28.60;;;8.60;85.00;;;;;;4969939;28;20143;-70
2023/04/23 05:00:53;;;;;;;70.47;30.10;;;8.60;84.70;;;;;;4980381;28;20083;-70
2023/04/23 05:03:24;;;;;;;73.07;30.73;;;8.60;84.80;;;;;;5000991;28;20058;-70
2023/04/23 05:05:53;;;;;;;70.00;29.47;;;8.60;85.00;;;;;;4989566;28;20074;-70
2023/04/23 05:08:20;;;;;;;68.32;29.27;;;8.60;85.00;;;;;;5001230;28;20294;-70
2023/04/23 05:10:49;;;;;;;74.30;29.75;;;8.60;85.20;;;;;;5003164;28;20326;-70
2023/04/23 05:13:16;;;;;;;72.53;29.67;;;8.70;85.10;;;;;;4989066;28;20050;-70
2023/04/23 05:15:43;;;;;;;67.55;29.45;;;8.70;85.10;;;;;;4988060;28;20094;-70
2023/04/23 05:18:10;;;;;;;65.77;29.10;;;8.70;85.20;;;;;;4989129;28;20503;-70
2023/04/23 05:20:39;;;;;;;69.85;29.20;;;8.80;85.30;;;;;;4998218;28;20540;-70
2023/04/23 05:23:06;;;;;;;64.30;27.30;;;8.80;85.40;;;;;;4994923;28;20058;-70
2023/04/23 05:25:33;;;;;;;63.63;28.25;;;8.80;85.40;;;;;;4989166;28;20134;-70
2023/04/23 05:28:00;;;;;;;68.95;29.23;;;8.80;85.50;;;;;;4987892;28;20051;-70
2023/04/23 05:30:27;;;;;;;64.53;28.60;;;8.80;85.40;;;;;;5003134;28;20556;-69
2023/04/23 05:32:54;;;;;;;59.45;25.58;;;8.80;85.40;;;;;;4989521;28;20776;-70
2023/04/23 05:35:21;;;;;;;60.65;27.73;;;8.80;85.70;;;;;;5003868;28;20133;-70
2023/04/23 05:37:50;;;;;;;62.10;28.17;;;8.90;85.50;;;;;;4971957;28;20059;-70
2023/04/23 05:40:17;;;;;;;66.07;29.55;;;8.90;85.60;;;;;;4966395;28;20526;-71
2023/04/23 05:42:44;;;;;;;63.93;29.10;;;8.90;85.70;;;;;;4981030;28;20051;-70
2023/04/23 05:45:11;;;;;;;61.78;27.63;;;8.90;85.60;;;;;;4987385;28;20254;-70
2023/04/23 05:47:38;;;;;;;60.60;27.27;;;8.90;85.70;;;;;;4988954;28;20058;-69
2023/04/23 05:50:06;;;;;;;63.38;27.02;;;8.90;85.60;;;;;;4988389;28;20051;-70
2023/04/23 05:52:36;;;;;;;59.72;26.58;;;9.00;85.70;;;;;;5003777;28;20070;-70
2023/04/23 05:55:05;;;;;;;60.40;26.57;;;9.00;85.60;;;;;;4967446;28;20514;-70
2023/04/23 05:57:31;;;;;;;61.38;26.92;;;9.00;85.70;;;;;;4978761;28;20871;-70
2023/04/23 05:59:58;;;;;;;60.85;26.73;;;9.00;85.70;;;;;;5002913;28;20051;-69
2023/04/23 06:02:27;;;;;;;61.25;26.02;;;9.00;85.80;;;;;;4999411;28;20055;-70
2023/04/23 06:04:54;;;;;;;66.25;28.15;;;9.00;85.90;;;;;;5000217;28;20047;-70
2023/04/23 06:07:21;;;;;;;60.07;27.47;;;9.00;85.90;;;;;;4986614;28;20540;-70
2023/04/23 06:09:48;;;;;;;60.72;26.95;;;9.10;85.90;;;;;;4985697;28;20299;-70
2023/04/23 06:12:17;;;;;;;62.05;27.30;;;9.20;85.90;;;;;;4986690;28;20058;-70
2023/04/23 06:14:44;;;;;;;58.22;25.42;;;9.20;85.90;;;;;;4986944;28;20051;-70
2023/04/23 06:17:11;;;;;;;58.35;26.02;;;9.20;86.30;;;;;;4986980;28;20178;-70
2023/04/23 06:19:38;;;;;;;57.83;26.20;;;9.20;86.10;;;;;;4986229;28;20051;-70
2023/04/23 06:22:05;;;;;;;64.63;28.23;;;9.30;86.40;;;;;;4988108;28;20289;-70
2023/04/23 06:24:32;;;;;;;54.33;25.15;;;9.40;86.40;;;;;;4988472;28;20569;-70
2023/04/23 06:27:00;;;;;;;60.50;27.17;;;9.40;86.50;;;;;;4980892;28;20508;-70
2023/04/23 06:29:29;;;;;;;56.97;26.42;;;9.40;86.70;;;;;;4966861;28;20043;-70
2023/04/23 06:32:04;;;;;;;61.60;26.40;;;9.50;86.70;;;;;;4998894;28;20407;-70
2023/04/23 06:34:31;;;;;;;57.50;24.45;;;9.50;86.60;;;;;;4967382;28;20804;-70
2023/04/23 06:36:58;;;;;;;57.90;24.52;;;9.50;86.70;;;;;;4986619;28;20535;-70
2023/04/23 06:39:25;;;;;;;54.50;24.65;;;9.60;86.70;;;;;;4986238;28;20506;-70
2023/04/23 06:41:52;;;;;;;54.22;25.17;;;9.60;86.70;;;;;;4988514;28;20144;-70
2023/04/23 06:44:47;;;;;;;51.43;22.70;;;9.70;86.80;;;;;;4984272;28;20537;-70
2023/04/23 06:47:14;;;;;;;48.13;19.85;;;9.70;86.70;;;;;;4987186;28;20334;-70
2023/04/23 06:49:41;;;;;;;50.38;22.85;;;9.80;87.00;;;;;;4987581;28;20105;-70
2023/04/23 06:52:08;;;;;;;49.47;23.13;;;9.80;86.90;;;;;;4989052;28;20594;-70
2023/04/23 06:54:35;;;;;;;52.75;23.13;;;9.80;86.90;;;;;;4989937;28;20484;-70
2023/04/23 06:57:01;;;;;;;54.30;24.40;;;9.90;86.80;;;;;;4990163;28;20166;-70
2023/04/23 06:59:28;;;;;;;46.05;20.60;;;10.00;86.70;;;;;;4978104;28;20255;-70
2023/04/23 07:01:59;;;;;;;43.05;19.63;;;10.00;87.20;;;;;;4999293;28;20128;-70
2023/04/23 07:04:25;;;;;;;47.17;22.65;;;10.10;87.20;;;;;;4980518;28;20109;-70
2023/04/23 07:06:52;;;;;;;40.25;17.48;;;10.10;87.20;;;;;;4991697;28;20057;-71
2023/04/23 07:09:19;;;;;;;45.67;21.10;;;10.20;87.10;;;;;;4990643;28;20608;-70
2023/04/23 07:11:46;;;;;;;40.70;20.23;;;10.30;86.90;;;;;;4989739;28;20274;-70
2023/04/23 07:14:13;;;;;;;46.10;22.70;;;10.30;86.90;;;;;;5006236;28;20057;-70
2023/04/23 07:16:40;;;;;;;42.15;20.98;;;10.40;86.80;;;;;;5003607;28;20660;-70
2023/04/23 07:19:08;;;;;;;42.28;19.90;;;10.40;87.00;;;;;;4988985;28;20051;-70
2023/04/23 07:21:35;;;;;;;46.77;21.60;;;10.50;86.80;;;;;;4991519;28;20138;-70
2023/04/23 07:24:05;;;;;;;44.50;21.48;;;10.60;86.70;;;;;;4986817;28;20279;-70
2023/04/23 07:26:32;;;;;;;47.42;23.90;;;10.60;86.50;;;;;;4978484;28;20162;-70
2023/04/23 07:29:00;;;;;;;43.45;22.35;;;10.70;86.60;;;;;;4990377;28;20050;-70
2023/04/23 07:31:27;;;;;;;45.05;24.02;;;10.80;86.60;;;;;;5006193;28;20057;-70
2023/04/23 07:33:54;;;;;;;42.93;22.13;;;10.80;86.50;;;;;;4988554;28;20129;-70
2023/04/23 07:36:23;;;;;;;42.95;22.23;;;10.90;86.20;;;;;;4989960;28;20262;-70
2023/04/23 07:38:50;;;;;;;42.15;20.33;;;10.90;85.90;;;;;;4988644;28;20581;-70
2023/04/23 07:41:17;;;;;;;40.30;19.02;;;11.00;85.50;;;;;;4990887;28;20165;-70
2023/04/23 07:43:43;;;;;;;42.95;21.23;;;11.00;85.50;;;;;;4985970;28;20105;-70
2023/04/23 07:46:10;;;;;;;38.63;19.70;;;11.10;85.20;;;;;;4991317;28;20588;-70
2023/04/23 07:48:37;;;;;;;36.50;19.33;;;11.10;85.10;;;;;;4991201;28;20251;-70
2023/04/23 07:51:05;;;;;;;40.88;20.75;;;11.10;85.20;;;;;;4973476;28;20055;-70
2023/04/23 07:53:33;;;;;;;40.05;20.33;;;11.20;84.80;;;;;;4971410;28;20531;-70
2023/04/23 07:56:00;;;;;;;40.00;18.95;;;11.30;84.70;;;;;;4979773;28;20055;-70
2023/04/23 07:58:27;;;;;;;37.53;18.30;;;11.30;84.50;;;;;;4970143;28;20057;-70
2023/04/23 08:00:54;;;;;;;37.55;17.48;;;11.40;84.60;;;;;;4985474;28;20278;-70
2023/04/23 08:03:22;;;;;;;41.83;21.85;;;11.40;84.50;;;;;;4988502;28;20137;-70
2023/04/23 08:05:49;;;;;;;38.65;20.73;;;11.40;84.60;;;;;;4978396;28;20147;-70
2023/04/23 08:08:15;;;;;;;37.42;20.98;;;11.50;84.60;;;;;;4983933;28;20039;-70
2023/04/23 08:10:45;;;;;;;36.60;19.10;;;11.50;84.60;;;;;;4978596;28;20130;-70
2023/04/23 08:13:12;;;;;;;37.40;20.70;;;11.60;84.40;;;;;;4969749;28;20279;-70
2023/04/23 08:15:39;;;;;;;34.90;18.02;;;11.70;84.50;;;;;;4978523;28;20558;-70
2023/04/23 08:18:06;;;;;;;39.05;20.85;;;11.70;84.40;;;;;;4990262;28;20661;-70
2023/04/23 08:20:35;;;;;;;33.35;18.85;;;11.70;84.30;;;;;;4988126;28;20221;-70
2023/04/23 08:23:02;;;;;;;35.73;18.93;;;11.80;84.30;;;;;;4985305;28;20062;-70
2023/04/23 08:25:29;;;;;;;33.20;17.55;;;11.90;84.40;;;;;;4988842;28;20318;-70
2023/04/23 08:28:02;;;;;;;33.70;18.55;;;11.90;84.30;;;;;;5005345;28;20050;-70
2023/04/23 08:30:29;;;;;;;34.50;17.77;;;12.00;84.40;;;;;;4987679;28;20061;-70
2023/04/23 08:32:57;;;;;;;31.30;17.67;;;12.10;84.00;;;;;;4970985;28;20098;-70
2023/04/23 08:35:25;;;;;;;33.53;18.20;;;12.10;84.00;;;;;;4970518;28;20668;-70
2023/04/23 08:37:52;;;;;;;33.55;17.40;;;12.20;83.90;;;;;;4985834;28;20252;-70
2023/04/23 08:40:18;;;;;;;32.15;16.65;;;12.30;84.00;;;;;;4986191;28;20103;-70
2023/04/23 08:42:50;;;;;;;28.98;15.25;;;12.30;83.70;;;;;;4988716;28;20053;-70
2023/04/23 08:45:19;;;;;;;25.85;14.35;;;12.40;83.50;;;;;;4990390;28;20515;-70
2023/04/23 08:47:46;;;;;;;27.13;14.73;;;12.50;83.50;;;;;;4990009;28;20054;-70
2023/04/23 08:50:15;;;;;;;25.48;13.80;;;12.50;82.70;;;;;;4987855;28;20741;-70
2023/04/23 08:52:44;;;;;;;28.52;15.52;;;12.60;82.20;;;;;;4988580;28;20065;-70
2023/04/23 08:55:13;;;;;;;25.80;14.82;;;12.70;82.30;;;;;;4971407;28;20564;-71
2023/04/23 08:57:40;;;;;;;22.90;12.65;;;12.70;82.60;;;;;;4976834;28;20051;-70
2023/04/23 09:00:09;;;;;;;22.83;12.90;;;12.80;81.80;;;;;;4989128;28;20182;-70
2023/04/23 09:02:39;;;;;;;22.90;12.40;;;12.90;81.60;;;;;;4978467;28;20709;-71
2023/04/23 09:05:07;;;;;;;24.35;13.00;;;13.00;81.30;;;;;;4970139;28;20051;-70
2023/04/23 09:07:35;;;;;;;23.20;12.30;;;13.10;80.70;;;;;;4981185;28;20066;-70
2023/04/23 09:10:02;;;;;;;20.77;11.95;;;13.10;80.30;;;;;;5003951;28;20053;-70
2023/04/23 09:12:29;;;;;;;22.37;11.73;;;13.10;79.60;;;;;;4979634;28;20059;-70
2023/04/23 09:14:57;;;;;;;19.00;10.70;;;13.30;78.80;;;;;;4981994;28;20757;-71
2023/04/23 09:17:28;;;;;;;18.33;10.60;;;13.30;78.70;;;;;;4980772;28;20043;-70
2023/04/23 09:19:56;;;;;;;21.23;11.32;;;13.30;79.00;;;;;;4967879;28;20510;-70
2023/04/23 09:22:40;;;;;;;17.95;10.43;;;13.40;79.10;;;;;;4975260;28;20047;-70
2023/04/23 09:25:08;;;;;;;18.57;10.20;;;13.50;79.10;;;;;;4988030;28;20515;-70
2023/04/23 09:27:35;;;;;;;16.35;9.52;;;13.60;78.80;;;;;;4987831;28;20881;-70
2023/04/23 09:30:06;;;;;;;18.55;9.55;;;13.70;78.10;;;;;;5000608;28;20070;-71
2023/04/23 09:32:34;;;;;;;16.38;8.13;;;13.80;77.30;;;;;;4989849;28;20058;-70
2023/04/23 09:35:04;;;;;;;16.85;9.20;;;13.90;77.40;;;;;;5004192;28;20046;-71
2023/04/23 09:37:31;;;;;;;15.60;8.43;;;13.90;77.70;;;;;;4989453;28;20094;-70
2023/04/23 09:40:03;;;;;;;16.80;8.77;;;13.90;77.70;;;;;;5003206;28;20997;-70
2023/04/23 09:42:30;;;;;;;17.38;8.57;;;14.00;78.00;;;;;;4989038;28;20059;-70
2023/04/23 09:45:01;;;;;;;13.70;7.70;;;14.00;77.70;;;;;;4988988;28;20065;-70
2023/04/23 09:47:32;;;;;;;17.45;8.50;;;14.10;77.80;;;;;;5001444;28;20185;-71
2023/04/23 09:49:59;;;;;;;15.23;6.67;;;14.20;76.90;;;;;;4987156;28;20058;-70
2023/04/23 09:52:29;;;;;;;12.52;6.05;;;14.30;76.50;;;;;;4987371;28;20255;-70
2023/04/23 09:54:57;;;;;;;15.02;6.55;;;14.40;76.50;;;;;;4983104;28;20121;-71
2023/04/23 09:57:25;;;;;;;12.75;6.07;;;14.40;75.90;;;;;;4987213;28;20051;-70
2023/04/23 09:59:51;;;;;;;13.43;6.03;;;14.50;75.00;;;;;;4988402;28;20077;-70
2023/04/23 10:02:18;;;;;;;12.43;6.27;;;14.60;74.40;;;;;;5003111;28;20133;-70
2023/04/23 10:04:50;;;;;;;11.18;5.00;;;14.60;74.30;;;;;;4981681;28;20627;-71
2023/04/23 10:07:18;;;;;;;10.65;4.60;;;14.60;73.80;;;;;;4967288;28;20051;-71
2023/04/23 10:09:47;;;;;;;11.80;5.25;;;14.70;73.80;;;;;;4980725;28;20046;-71
2023/04/23 10:12:15;;;;;;;11.68;5.25;;;14.80;71.70;;;;;;4987084;28;20057;-71
2023/04/23 10:14:43;;;;;;;12.20;5.53;;;14.90;71.90;;;;;;4987224;28;20621;-71
2023/04/23 10:17:10;;;;;;;12.98;5.60;;;14.90;72.10;;;;;;4986673;28;20270;-71
2023/04/23 10:19:39;;;;;;;9.57;4.47;;;15.00;70.90;;;;;;4987843;28;20133;-71
2023/04/23 10:22:10;;;;;;;9.57;4.70;;;15.10;71.50;;;;;;4986024;28;20517;-71
2023/04/23 10:24:40;;;;;;;10.80;5.43;;;15.20;71.30;;;;;;4987310;28;20058;-71
2023/04/23 10:27:11;;;;;;;10.27;4.80;;;15.20;71.10;;;;;;4988305;28;20077;-70
2023/04/23 10:29:39;;;;;;;11.43;3.92;;;15.30;70.80;;;;;;4986283;28;20287;-72
2023/04/23 10:32:07;;;;;;;9.23;4.25;;;15.40;69.20;;;;;;4986653;28;20138;-70
2023/04/23 10:34:35;;;;;;;8.80;4.03;;;15.40;69.80;;;;;;4975838;28;20055;-70
2023/04/23 10:37:03;;;;;;;11.05;4.45;;;15.50;69.80;;;;;;4972014;28;20496;-71
2023/04/23 10:39:32;;;;;;;10.40;4.90;;;15.60;69.00;;;;;;5002709;28;20047;-70
2023/04/23 10:42:00;;;;;;;13.98;4.40;;;15.60;68.50;;;;;;4981603;28;20263;-71
2023/04/23 10:44:34;;;;;;;9.10;3.80;;;15.70;67.50;;;;;;4970796;28;20051;-71
2023/04/23 10:47:01;;;;;;;10.57;4.38;;;15.80;67.90;;;;;;5002743;28;20539;-70
2023/04/23 10:49:31;;;;;;;10.50;3.85;;;15.80;67.70;;;;;;4987675;28;20145;-71
2023/04/23 10:52:03;;;;;;;8.90;3.57;;;15.80;67.80;;;;;;4986796;28;20270;-71
2023/04/23 10:54:31;;;;;;;10.18;4.22;;;16.00;67.00;;;;;;4981228;28;20330;-70
2023/04/23 10:57:00;;;;;;;10.32;4.00;;;16.00;66.50;;;;;;4971810;28;20446;-71
2023/04/23 10:59:29;;;;;;;7.68;3.08;;;16.10;66.20;;;;;;4987192;28;20065;-71
2023/04/23 11:01:59;;;;;;;9.40;2.55;;;16.10;64.10;;;;;;4985844;28;20054;-71
2023/04/23 11:04:28;;;;;;;6.03;2.27;;;16.20;63.20;;;;;;4988580;28;20058;-71
2023/04/23 11:06:56;;;;;;;9.18;2.90;;;16.20;63.30;;;;;;4987613;28;20806;-70
2023/04/23 11:09:41;;;;;;;8.85;2.47;;;16.30;64.10;;;;;;4985533;28;20436;-71
2023/04/23 11:12:11;;;;;;;6.00;2.45;;;16.40;62.30;;;;;;4980575;28;20054;-71
2023/04/23 11:14:46;;;;;;;7.18;2.38;;;16.40;62.90;;;;;;4966732;28;20062;-72
2023/04/23 11:17:15;;;;;;;4.80;1.90;;;16.40;62.00;;;;;;4986043;28;20546;-71
2023/04/23 11:20:05;;;;;;;5.80;2.00;;;16.40;60.30;;;;;;5001312;28;20294;-71
2023/04/23 11:22:35;;;;;;;8.35;1.95;;;16.40;59.70;;;;;;4968234;28;20055;-71
2023/04/23 11:25:03;;;;;;;7.35;2.10;;;16.40;60.90;;;;;;4968016;28;20059;-71
2023/04/23 11:27:31;;;;;;;6.05;2.00;;;16.40;60.00;;;;;;4985178;28;20082;-71
2023/04/23 11:29:58;;;;;;;7.17;2.00;;;16.40;59.90;;;;;;4985647;28;20058;-71
2023/04/23 11:32:28;;;;;;;5.63;2.00;;;16.50;59.30;;;;;;4985872;28;20378;-71
2023/04/23 11:34:56;;;;;;;6.13;2.00;;;16.50;59.00;;;;;;4988134;28;20096;-71
2023/04/23 11:37:24;;;;;;;6.68;1.90;;;16.50;59.20;;;;;;4978501;28;20051;-71
2023/04/23 11:39:51;;;;;;;6.22;1.65;;;16.50;59.40;;;;;;4988982;28;20050;-71
2023/04/23 11:42:20;;;;;;;5.87;1.90;;;16.50;59.00;;;;;;4989492;28;20455;-71
2023/04/23 11:44:47;;;;;;;6.57;1.88;;;16.70;58.00;;;;;;4975196;28;20283;-71
2023/04/23 11:47:17;;;;;;;6.20;2.20;;;16.70;58.10;;;;;;4969636;28;20054;-71
2023/04/23 11:49:45;;;;;;;5.35;2.00;;;16.80;58.70;;;;;;4982694;28;20055;-71
2023/04/23 11:52:14;;;;;;;5.32;1.92;;;16.80;58.20;;;;;;4988675;28;20051;-71
2023/04/23 11:54:42;;;;;;;7.17;2.37;;;16.90;57.80;;;;;;4989155;28;20138;-71
2023/04/23 11:57:09;;;;;;;6.47;1.90;;;16.90;57.20;;;;;;4988956;28;20258;-71
2023/04/23 11:59:35;;;;;;;8.77;2.42;;;16.90;57.20;;;;;;4989618;28;20055;-71
2023/04/23 12:02:02;;;;;;;6.05;2.13;;;16.90;58.00;;;;;;4985941;28;20517;-71
2023/04/23 12:04:30;;;;;;;7.63;2.38;;;16.90;57.70;;;;;;4990392;28;20050;-71
2023/04/23 12:06:59;;;;;;;7.47;2.07;;;16.90;57.40;;;;;;4990491;28;20157;-71
2023/04/23 12:09:28;;;;;;;7.90;2.00;;;17.00;57.30;;;;;;5004305;28;20764;-71
2023/04/23 12:11:56;;;;;;;5.80;1.70;;;17.00;57.00;;;;;;4988437;28;20061;-71
2023/04/23 12:14:28;;;;;;;5.72;1.70;;;17.00;57.00;;;;;;4980562;28;20078;-70
2023/04/23 12:16:55;;;;;;;6.45;2.08;;;17.00;57.40;;;;;;4970266;28;20408;-71
2023/04/23 12:19:26;;;;;;;6.73;2.13;;;17.00;56.60;;;;;;4987733;28;20054;-71
2023/04/23 12:21:55;;;;;;;6.50;1.70;;;17.00;56.80;;;;;;5004860;28;20305;-70
2023/04/23 12:24:25;;;;;;;6.38;1.90;;;17.00;57.00;;;;;;4988464;28;20636;-71
2023/04/23 12:26:54;;;;;;;4.72;1.95;;;17.00;56.20;;;;;;4989469;28;20134;-71
2023/04/23 12:29:22;;;;;;;7.10;2.13;;;17.00;56.40;;;;;;4988216;28;20069;-71
2023/04/23 12:31:51;;;;;;;6.63;2.07;;;17.00;56.10;;;;;;4988568;28;20054;-71
2023/04/23 12:34:18;;;;;;;7.93;1.90;;;17.00;56.10;;;;;;4986949;28;20717;-71
2023/04/23 12:36:51;;;;;;;4.88;1.40;;;17.00;56.60;;;;;;5005104;28;20165;-71
2023/04/23 12:39:25;;;;;;;6.22;1.60;;;17.00;56.70;;;;;;4968182;28;20054;-71
2023/04/23 12:41:53;;;;;;;3.40;1.23;;;17.00;56.60;;;;;;4975951;28;20580;-71